Time;durP1;ratioP1;P1;durP2;ratioP2;P2;SDS_P1;SDS_P2;PMS_P1;PMS_P2;Temp;Humidity;BMP_temperature;BMP_pressure;BME280_temperature;BME280_humidity;BME280_pressure;Samples;Min_cycle;Max_cycle;Signal;HPM_P1;HPM_P2
2021/03/09 00:00:13;;;;;;;;;;;;;;;;;;;;;
2021/03/09 00:03:08;;;;;;;17.20;7.55;;;;;;;4.10;70.82;100969.16;6274956;22;20086;-73
2021/03/09 00:05:44;;;;;;;8.38;6.40;;;;;;;4.06;70.59;100964.38;6259834;22;20456;-70
2021/03/09 00:08:15;;;;;;;9.52;6.35;;;;;;;3.96;71.00;100954.81;6248347;22;20008;-72
2021/03/09 00:10:46;;;;;;;10.60;6.90;;;;;;;3.89;71.00;100962.09;6248356;22;20418;-72
2021/03/09 00:13:43;;;;;;;6.93;6.32;;;;;;;3.96;70.80;100976.47;6251521;22;20011;-74
2021/03/09 00:16:21;;;;;;;8.25;6.13;;;;;;;3.85;71.41;100974.38;6273285;22;20458;-73
2021/03/09 00:25:18;;;;;;;11.82;6.85;;;;;;;3.60;73.04;100961.47;6254611;22;20007;-72
2021/03/09 00:27:54;;;;;;;;;;;;;;;;;;;;;
2021/03/09 00:33:42;;;;;;;10.57;6.75;;;;;;;3.62;73.74;100975.63;6263158;22;20004;-71
2021/03/09 00:36:31;;;;;;;12.48;6.60;;;;;;;3.47;73.27;100947.94;6248870;22;20026;-72
2021/03/09 00:39:23;;;;;;;9.82;6.25;;;;;;;3.59;73.51;100961.66;6226634;22;20093;-72
2021/03/09 00:41:54;;;;;;;13.52;6.78;;;;;;;3.57;72.40;100959.16;6273754;22;20000;-72
2021/03/09 00:44:54;;;;;;;10.48;7.40;;;;;;;3.48;72.77;100947.72;6250201;22;20421;-72
2021/03/09 00:57:35;;;;;;;5.85;5.45;;;;;;;3.20;71.15;100931.66;6274264;22;20016;-72
2021/03/09 01:00:38;;;;;;;13.05;6.28;;;;;;;3.11;71.91;100932.88;6248896;22;20019;-72
2021/03/09 01:05:52;;;;;;;9.82;6.65;;;;;;;3.04;72.97;100940.13;6251057;22;20338;-72
2021/03/09 01:08:34;;;;;;;18.48;6.90;;;;;;;3.01;73.42;100932.44;6248663;22;20008;-73
2021/03/09 01:11:42;;;;;;;10.32;6.57;;;;;;;2.96;73.14;100931.19;6274248;22;20004;-72
2021/03/09 01:17:25;;;;;;;;;;;;;;;;;;;;;
2021/03/09 01:20:29;;;;;;;6.70;6.15;;;;;;;2.93;72.95;100942.38;6276286;22;20102;-72
2021/03/09 01:23:30;;;;;;;;;;;;;;;;;;;;;
2021/03/09 01:29:24;;;;;;;12.93;6.45;;;;;;;2.72;73.33;100934.44;6242090;22;20438;-72
2021/03/09 01:31:49;;;;;;;6.93;6.00;;;;;;;2.67;73.35;100926.09;6250098;22;20533;-72
2021/03/09 01:34:27;;;;;;;;;;;;;;;;;;;;;
2021/03/09 01:40:23;;;;;;;8.68;5.65;;;;;;;2.48;74.14;100928.50;6220097;22;20013;-71
2021/03/09 01:43:34;;;;;;;;;;;;;;;;;;;;;
2021/03/09 01:46:10;;;;;;;6.97;5.63;;;;;;;2.53;73.79;100946.81;6152253;23;20084;-73
2021/03/09 01:49:25;;;;;;;;;;;;;;;;;;;;;
2021/03/09 01:58:14;;;;;;;13.10;6.87;;;;;;;2.44;74.21;100932.66;6276201;22;20007;-72
2021/03/09 02:01:12;;;;;;;10.10;6.25;;;;;;;2.45;73.93;100934.28;6262514;22;20053;-73
2021/03/09 02:04:09;;;;;;;;;;;;;;;;;;;;;
2021/03/09 02:07:04;;;;;;;5.43;4.47;;;;;;;2.35;73.09;100928.44;6276341;22;20053;-73
2021/03/09 02:09:45;;;;;;;4.45;4.15;;;;;;;2.19;73.22;100903.44;6271766;22;20034;-74
2021/03/09 02:13:04;;;;;;;7.82;4.72;;;;;;;2.23;73.76;100928.16;6251884;22;20027;-74
2021/03/09 02:16:17;;;;;;;;;;;;;;;;;;;;;
2021/03/09 02:19:48;;;;;;;3.58;3.38;;;;;;;1.94;73.01;100905.75;6266280;22;20075;-72
2021/03/09 02:22:47;;;;;;;;;;;;;;;;;;;;;
2021/03/09 02:25:48;;;;;;;4.80;4.35;;;;;;;2.04;73.12;100922.41;6283484;22;20026;-74
2021/03/09 02:29:04;;;;;;;4.47;4.03;;;;;;;1.98;73.10;100920.53;6210044;22;20007;-75
2021/03/09 02:32:18;;;;;;;7.35;4.47;;;;;;;1.89;72.25;100919.00;6272017;22;20007;-75
2021/03/09 02:35:02;;;;;;;;;;;;;;;;;;;;;
2021/03/09 02:37:40;;;;;;;4.10;3.80;;;;;;;1.80;72.06;100910.25;6284394;22;20019;-73
2021/03/09 02:40:19;;;;;;;9.52;3.95;;;;;;;1.72;72.71;100897.75;6278198;22;20007;-73
2021/03/09 02:42:57;;;;;;;;;;;;;;;;;;;;;
2021/03/09 02:49:47;;;;;;;4.43;4.03;;;;;;;1.66;71.93;100911.16;6276699;22;20008;-73
2021/03/09 02:53:19;;;;;;;4.00;3.60;;;;;;;1.57;73.09;100905.91;6269106;22;20091;-74
2021/03/09 02:56:11;;;;;;;5.50;4.28;;;;;;;1.51;72.48;100913.94;6246030;22;20445;-73
2021/03/09 02:59:10;;;;;;;5.68;4.20;;;;;;;1.32;72.41;100888.50;6276122;22;20002;-74
2021/03/09 03:01:55;;;;;;;4.50;4.20;;;;;;;1.42;73.11;100913.25;6276167;22;20032;-73
2021/03/09 03:04:32;;;;;;;;;;;;;;;;;;;;;
2021/03/09 03:07:35;;;;;;;;;;;;;;;;;;;;;
2021/03/09 03:11:08;;;;;;;;;;;;;;;;;;;;;
2021/03/09 03:13:49;;;;;;;4.22;3.85;;;;;;;1.19;72.95;100887.31;6238877;22;20079;-73
2021/03/09 03:17:17;;;;;;;4.05;3.75;;;;;;;1.27;73.24;100909.78;6277739;22;20373;-72
2021/03/09 03:19:49;;;;;;;4.68;4.28;;;;;;;1.08;73.67;100885.16;6250160;22;20050;-72
2021/03/09 03:22:22;;;;;;;4.13;3.92;;;;;;;1.16;73.18;100903.88;6278047;22;20470;-72
2021/03/09 03:24:56;;;;;;;5.18;4.75;;;;;;;1.16;74.10;100887.72;6252219;22;20384;-73
2021/03/09 03:27:24;;;;;;;6.15;5.43;;;;;;;1.15;74.49;100886.03;6278719;22;20071;-72
2021/03/09 03:29:52;;;;;;;5.75;5.13;;;;;;;1.27;74.95;100890.91;6252297;22;20403;-72
2021/03/09 03:32:38;;;;;;;4.45;4.05;;;;;;;1.22;74.02;100881.53;6225323;22;20053;-73
2021/03/09 03:35:17;;;;;;;7.70;5.18;;;;;;;1.31;74.38;100878.72;6248953;22;20014;-73
2021/03/09 03:38:18;;;;;;;;;;;;;;;;;;;;;
2021/03/09 03:40:44;;;;;;;4.57;4.18;;;;;;;1.14;74.94;100849.38;6275242;22;20092;-73
2021/03/09 03:43:33;;;;;;;4.90;4.53;;;;;;;1.33;74.70;100887.44;6247371;22;20434;-72
2021/03/09 03:45:59;;;;;;;8.15;4.30;;;;;;;1.28;74.33;100885.34;6233035;22;20006;-73
2021/03/09 03:48:58;;;;;;;;;;;;;;;;;;;;;
2021/03/09 03:52:16;;;;;;;4.05;3.85;;;;;;;0.96;74.12;100838.22;6267468;22;20036;-73
2021/03/09 03:55:48;;;;;;;4.93;4.45;;;;;;;1.01;74.28;100857.34;6220046;22;20495;-73
2021/03/09 03:59:01;;;;;;;;;;;;;;;;;;;;;
2021/03/09 04:02:44;;;;;;;;;;;;;;;;;;;;;
2021/03/09 04:05:37;;;;;;;;;;;;;;;;;;;;;
2021/03/09 04:08:58;;;;;;;;;;;;;;;;;;;;;
2021/03/09 04:11:30;;;;;;;7.93;5.80;;;;;;;1.06;76.42;100854.06;6258888;22;20080;-73
2021/03/09 04:14:14;;;;;;;7.05;5.95;;;;;;;1.00;76.22;100844.88;6249288;22;20008;-73
2021/03/09 04:17:21;;;;;;;6.97;5.55;;;;;;;1.04;75.91;100856.94;6228450;22;20016;-73
2021/03/09 04:20:04;;;;;;;5.03;4.72;;;;;;;1.19;76.77;100876.53;6270950;22;20011;-74
2021/03/09 04:22:32;;;;;;;5.22;4.82;;;;;;;0.95;76.26;100836.53;6246589;22;20014;-73
2021/03/09 04:25:19;;;;;;;3.92;3.65;;;;;;;1.07;76.55;100861.94;6275433;22;20069;-73
2021/03/09 04:27:54;;;;;;;11.60;4.70;;;;;;;1.05;76.60;100863.97;6252058;22;20012;-73
2021/03/09 04:30:23;;;;;;;4.10;3.28;;;;;;;0.98;76.25;100858.53;6249951;22;20008;-73
2021/03/09 04:32:51;;;;;;;3.70;3.05;;;;;;;1.08;75.65;100879.78;6275840;22;20027;-74
2021/03/09 04:35:21;;;;;;;3.10;2.90;;;;;;;1.07;76.19;100878.09;6250893;22;20085;-73
2021/03/09 04:37:48;;;;;;;2.58;2.45;;;;;;;1.06;75.90;100879.13;6252064;22;20449;-73
2021/03/09 04:40:35;;;;;;;2.47;2.33;;;;;;;1.05;75.57;100869.38;6249713;22;20008;-72
2021/03/09 04:43:10;;;;;;;2.20;2.10;;;;;;;1.04;76.08;100883.88;6248676;22;20008;-73
2021/03/09 04:45:36;;;;;;;1.33;1.30;;;;;;;1.03;75.58;100879.50;6250200;22;20057;-72
2021/03/09 04:48:22;;;;;;;;;;;;;;;;;;;;;
2021/03/09 04:50:53;;;;;;;1.13;1.13;;;;;;;1.00;75.03;100871.81;6277965;22;20080;-74
2021/03/09 04:53:49;;;;;;;1.77;1.55;;;;;;;0.96;74.69;100874.03;6227163;22;20022;-74
2021/03/09 04:56:15;;;;;;;0.75;0.73;;;;;;;1.02;74.70;100884.06;6276552;22;20365;-75
2021/03/09 04:59:06;;;;;;;0.90;0.77;;;;;;;1.01;75.34;100878.88;6253580;22;20095;-73
2021/03/09 05:01:38;;;;;;;0.50;0.50;;;;;;;0.89;74.44;100848.06;6236907;22;20027;-73
2021/03/09 05:04:13;;;;;;;0.70;0.70;;;;;;;0.84;75.21;100848.66;6252757;22;20003;-73
2021/03/09 05:06:59;;;;;;;0.40;0.40;;;;;;;1.01;73.99;100873.50;6251243;22;20015;-74
2021/03/09 05:12:28;;;;;;;0.77;0.77;;;;;;;0.81;73.81;100855.25;6274238;22;19999;-73
2021/03/09 05:15:23;;;;;;;;;;;;;;;;;;;;;
2021/03/09 05:17:51;;;;;;;0.40;0.40;;;;;;;0.83;73.79;100850.53;6269474;22;20099;-73
2021/03/09 05:20:27;;;;;;;;;;;;;;;;;;;;;
2021/03/09 05:22:58;;;;;;;2.25;0.80;;;;;;;0.87;74.09;100861.75;6274599;22;20051;-74
2021/03/09 05:25:28;;;;;;;0.35;0.35;;;;;;;0.93;73.92;100882.50;6276056;22;20007;-73
2021/03/09 05:27:58;;;;;;;0.20;0.20;;;;;;;0.78;74.00;100850.25;6247473;22;20011;-73
2021/03/09 05:30:31;;;;;;;0.47;0.47;;;;;;;0.89;73.82;100869.63;6249903;22;20010;-73
2021/03/09 05:32:57;;;;;;;0.38;0.30;;;;;;;0.92;73.93;100885.41;6277201;22;20006;-73
2021/03/09 05:35:25;;;;;;;0.50;0.50;;;;;;;0.77;73.04;100862.03;6281941;22;20000;-72
2021/03/09 05:37:57;;;;;;;0.82;0.82;;;;;;;0.75;73.95;100866.78;6252226;22;20018;-72
2021/03/09 05:43:53;;;;;;;1.38;1.27;;;;;;;0.81;73.40;100879.47;6244647;22;20007;-74
2021/03/09 05:46:29;;;;;;;1.70;1.50;;;;;;;0.69;73.51;100864.88;6250517;22;20003;-75
2021/03/09 05:49:05;;;;;;;;;;;;;;;;;;;;;
2021/03/09 05:51:48;;;;;;;6.38;3.80;;;;;;;0.67;73.64;100866.91;6265862;22;20043;-74
2021/03/09 05:54:20;;;;;;;10.05;5.57;;;;;;;0.71;74.27;100868.19;6253339;22;20464;-73
2021/03/09 05:56:58;;;;;;;5.75;5.22;;;;;;;0.71;75.36;100862.81;6278152;22;20000;-74
2021/03/09 05:59:34;;;;;;;8.82;5.57;;;;;;;0.85;75.93;100874.56;6275049;22;20031;-73
2021/03/09 06:02:10;;;;;;;;;;;;;;;;;;;;;
2021/03/09 06:04:40;;;;;;;6.60;6.07;;;;;;;0.80;75.94;100867.03;6282941;22;20367;-74
2021/03/09 06:07:45;;;;;;;6.43;6.03;;;;;;;0.89;76.25;100880.38;6202511;22;20007;-73
2021/03/09 06:10:38;;;;;;;6.18;5.60;;;;;;;0.86;76.24;100887.84;6247804;22;20369;-73
2021/03/09 06:13:42;;;;;;;4.95;4.55;;;;;;;0.84;76.95;100884.47;6224758;22;20015;-73
2021/03/09 06:16:10;;;;;;;7.07;5.50;;;;;;;0.69;76.64;100864.88;6258921;22;20012;-73
2021/03/09 06:19:06;;;;;;;5.97;4.97;;;;;;;0.77;76.79;100891.66;6294665;22;19999;-74
2021/03/09 06:21:32;;;;;;;8.88;5.40;;;;;;;0.68;76.71;100879.34;6260170;22;20020;-73
2021/03/09 06:24:17;;;;;;;6.05;4.10;;;;;;;0.81;76.92;100903.72;6295386;22;20012;-73
2021/03/09 06:26:43;;;;;;;3.90;3.70;;;;;;;0.73;76.77;100898.47;6274283;22;20067;-75
2021/03/09 06:29:24;;;;;;;2.05;1.90;;;;;;;0.74;76.67;100900.13;6263782;22;20000;-73
2021/03/09 06:31:55;;;;;;;5.38;4.88;;;;;;;0.77;76.65;100909.69;6235703;22;20004;-74
2021/03/09 06:34:34;;;;;;;;;;;;;;;;;;;;;
2021/03/09 06:37:23;;;;;;;7.55;6.75;;;;;;;0.82;78.11;100897.31;6289076;22;20039;-75
2021/03/09 06:39:57;;;;;;;8.13;6.88;;;;;;;0.93;77.96;100908.63;6253635;22;20007;-74
2021/03/09 06:42:35;;;;;;;13.15;6.68;;;;;;;0.98;79.03;100908.84;6290601;22;20006;-74
2021/03/09 06:45:06;;;;;;;9.02;6.72;;;;;;;1.01;79.35;100911.19;6251492;22;20019;-74
2021/03/09 06:47:52;;;;;;;8.57;7.25;;;;;;;1.01;79.25;100903.13;6257871;22;20433;-74
2021/03/09 06:50:22;;;;;;;8.43;7.63;;;;;;;1.04;79.69;100905.44;6283186;22;19999;-73
2021/03/09 06:53:03;;;;;;;11.98;8.85;;;;;;;0.87;79.31;100878.72;6282877;22;20373;-74
2021/03/09 06:55:38;;;;;;;7.97;7.18;;;;;;;1.05;79.92;100912.47;6253071;22;20403;-74
2021/03/09 06:58:12;;;;;;;17.27;7.78;;;;;;;1.10;79.74;100918.13;6277650;22;19999;-76
2021/03/09 07:00:38;;;;;;;8.32;7.60;;;;;;;0.99;79.66;100897.06;6275379;22;20010;-75
2021/03/09 07:03:04;;;;;;;12.30;8.25;;;;;;;1.14;79.98;100911.34;6229003;22;20011;-74
2021/03/09 07:05:56;;;;;;;7.82;7.20;;;;;;;1.15;79.34;100915.66;6276901;22;20093;-73
2021/03/09 07:08:31;;;;;;;;;;;;;;;;;;;;;
2021/03/09 07:11:23;;;;;;;8.52;7.40;;;;;;;1.00;79.17;100882.59;6269498;22;20067;-74
2021/03/09 07:16:56;;;;;;;9.45;7.82;;;;;;;1.09;79.76;100902.97;6244469;22;20042;-74
2021/03/09 07:19:49;;;;;;;7.82;7.07;;;;;;;1.22;79.65;100913.88;6249922;22;20014;-73
2021/03/09 07:22:28;;;;;;;;;;;;;;;;;;;;;
2021/03/09 07:25:39;;;;;;;7.47;6.75;;;;;;;1.44;80.13;100927.34;6279788;22;20363;-74
2021/03/09 07:28:12;;;;;;;5.65;5.25;;;;;;;1.39;80.25;100905.56;6239051;22;20063;-74
2021/03/09 07:30:44;;;;;;;5.25;4.90;;;;;;;1.40;80.50;100909.91;6273926;22;20000;-72
2021/03/09 07:33:11;;;;;;;4.20;4.00;;;;;;;1.44;80.16;100916.56;6249274;22;20007;-73
2021/03/09 07:35:44;;;;;;;5.07;4.78;;;;;;;1.52;80.62;100913.75;6280323;22;20482;-74
2021/03/09 07:38:10;;;;;;;5.63;5.07;;;;;;;1.42;81.06;100907.88;6272519;22;20003;-73
2021/03/09 07:40:36;;;;;;;5.47;5.07;;;;;;;1.59;80.77;100924.56;6249579;22;20007;-72
2021/03/09 07:43:06;;;;;;;5.25;4.95;;;;;;;1.55;80.83;100918.75;6275388;22;20004;-71
2021/03/09 07:45:35;;;;;;;4.55;4.35;;;;;;;1.59;81.40;100918.34;6245341;22;20050;-72
2021/03/09 07:48:06;;;;;;;5.00;4.60;;;;;;;1.66;81.81;100913.84;6250434;22;20014;-73
2021/03/09 07:50:40;;;;;;;4.43;4.22;;;;;;;1.80;80.89;100931.81;6275962;22;19995;-73
2021/03/09 07:53:20;;;;;;;4.60;4.32;;;;;;;1.81;81.63;100917.31;6250923;22;20300;-73
2021/03/09 07:56:16;;;;;;;4.15;3.95;;;;;;;1.81;81.85;100905.66;6246192;22;20046;-76
2021/03/09 07:58:45;;;;;;;4.72;4.53;;;;;;;1.95;81.45;100917.41;6281509;22;20027;-78
2021/03/09 08:01:22;;;;;;;4.60;4.40;;;;;;;2.01;81.36;100911.22;6254926;22;20855;-75
2021/03/09 08:04:06;;;;;;;;;;;;;;;;;;;;;
2021/03/09 08:06:44;;;;;;;4.60;4.30;;;;;;;2.08;81.34;100879.72;6279849;22;20083;-76
2021/03/09 08:09:35;;;;;;;4.75;4.50;;;;;;;2.44;80.97;100911.88;6278058;22;20387;-76
2021/03/09 08:12:06;;;;;;;4.63;4.32;;;;;;;2.57;80.70;100916.50;6247121;22;20058;-77
2021/03/09 08:14:56;;;;;;;4.70;4.50;;;;;;;2.67;80.20;100912.59;6278001;22;20018;-75
2021/03/09 08:17:27;;;;;;;4.80;4.50;;;;;;;2.64;80.88;100911.13;6278211;22;20010;-77
2021/03/09 08:20:03;;;;;;;4.55;4.35;;;;;;;2.67;79.97;100920.69;6248597;22;20010;-76
2021/03/09 08:22:49;;;;;;;;;;;;;;;;;;;;;
2021/03/09 08:25:45;;;;;;;4.72;4.53;;;;;;;3.02;79.70;100928.72;6255773;22;20079;-77
2021/03/09 08:28:39;;;;;;;3.90;3.70;;;;;;;3.20;80.06;100936.22;6249519;22;20098;-76
2021/03/09 08:31:11;;;;;;;4.65;4.45;;;;;;;3.25;80.47;100934.56;6254136;22;20031;-77
2021/03/09 08:33:36;;;;;;;4.35;4.05;;;;;;;3.43;79.19;100935.84;6276242;22;20079;-76
2021/03/09 08:36:26;;;;;;;4.32;4.13;;;;;;;3.69;79.99;100928.81;6246355;22;20003;-73
2021/03/09 08:39:13;;;;;;;4.35;4.15;;;;;;;3.88;79.31;100927.13;6272145;22;20003;-71
2021/03/09 08:41:38;;;;;;;5.00;4.70;;;;;;;4.00;78.85;100937.13;6279850;22;20001;-73
2021/03/09 08:44:20;;;;;;;4.80;4.32;;;;;;;4.25;78.19;100928.34;6278404;22;20069;-73
2021/03/09 08:47:13;;;;;;;5.07;4.78;;;;;;;4.41;77.45;100926.19;6281757;22;20322;-73
2021/03/09 08:49:39;;;;;;;4.80;4.47;;;;;;;4.63;77.14;100930.31;6253534;22;20003;-73
2021/03/09 08:52:43;;;;;;;4.78;4.28;;;;;;;4.86;77.06;100937.06;6252966;22;20007;-76
2021/03/09 08:55:17;;;;;;;5.10;4.63;;;;;;;4.87;76.27;100939.56;6251332;22;20003;-75
2021/03/09 08:57:48;;;;;;;4.57;4.37;;;;;;;4.82;76.24;100922.28;6254451;22;20049;-76
2021/03/09 09:00:21;;;;;;;4.35;4.15;;;;;;;5.06;75.65;100955.97;6249953;22;20233;-76
2021/03/09 09:02:47;;;;;;;5.40;4.90;;;;;;;5.06;75.73;100954.06;6278414;22;20018;-74
2021/03/09 09:05:13;;;;;;;4.95;4.65;;;;;;;5.26;75.35;100961.28;6279468;22;20075;-74
2021/03/09 09:07:43;;;;;;;5.18;4.88;;;;;;;5.47;75.48;100957.38;6252665;22;20014;-74
2021/03/09 09:10:27;;;;;;;5.18;4.97;;;;;;;6.01;75.24;100957.81;6252862;22;20004;-73
2021/03/09 09:12:57;;;;;;;4.35;4.13;;;;;;;6.52;73.59;100969.44;6252520;22;20011;-75
2021/03/09 09:15:25;;;;;;;4.72;4.43;;;;;;;6.66;72.40;100967.41;6277542;22;20015;-73
2021/03/09 09:18:00;;;;;;;4.28;3.97;;;;;;;6.91;72.28;100969.22;6252607;22;20049;-74
2021/03/09 09:20:31;;;;;;;4.45;4.20;;;;;;;7.49;71.97;100957.75;6252155;22;20030;-75
2021/03/09 09:23:19;;;;;;;5.15;4.60;;;;;;;8.23;70.41;100961.16;6280974;22;19999;-73
2021/03/09 09:25:46;;;;;;;2.53;2.42;;;;;;;8.80;68.06;100961.34;6249098;22;20086;-73
2021/03/09 09:28:25;;;;;;;4.05;3.85;;;;;;;9.55;66.41;100975.03;6252515;22;20018;-73
2021/03/09 09:30:53;;;;;;;3.65;3.45;;;;;;;9.93;63.73;100971.63;6276847;22;19995;-72
2021/03/09 09:33:19;;;;;;;4.82;3.40;;;;;;;10.42;63.51;100971.00;6281290;22;20003;-72
2021/03/09 09:35:53;;;;;;;3.30;3.20;;;;;;;11.05;61.21;100967.16;6251812;22;20027;-74
2021/03/09 09:38:19;;;;;;;4.03;3.72;;;;;;;11.49;59.86;100958.84;6253616;22;20087;-73
2021/03/09 09:40:57;;;;;;;3.70;3.47;;;;;;;12.14;57.70;100954.22;6250680;22;20182;-73
2021/03/09 09:43:27;;;;;;;3.42;3.22;;;;;;;12.59;56.82;100963.00;6280492;22;20394;-73
2021/03/09 09:45:54;;;;;;;4.60;4.30;;;;;;;13.25;54.46;100958.88;6249062;22;19999;-73
2021/03/09 09:48:23;;;;;;;7.10;3.60;;;;;;;13.99;52.54;100959.53;6252689;22;20103;-74
2021/03/09 09:50:52;;;;;;;3.72;3.40;;;;;;;14.54;50.32;100950.63;6251727;22;20000;-73
2021/03/09 09:53:30;;;;;;;3.47;3.28;;;;;;;15.25;49.12;100954.19;6275365;22;19996;-74
2021/03/09 09:56:00;;;;;;;3.67;3.30;;;;;;;15.75;48.21;100952.19;6251356;22;20012;-74
2021/03/09 09:58:48;;;;;;;4.50;3.10;;;;;;;16.53;45.18;100950.38;6252085;22;20022;-74
2021/03/09 10:01:23;;;;;;;3.97;3.55;;;;;;;16.98;44.22;100933.56;6250335;22;20058;-74
2021/03/09 10:03:59;;;;;;;5.47;3.67;;;;;;;17.42;42.83;100932.38;6249688;22;20004;-76
2021/03/09 10:06:50;;;;;;;2.75;2.65;;;;;;;17.95;43.38;100925.72;6278056;22;20224;-74
2021/03/09 10:09:25;;;;;;;4.10;3.55;;;;;;;18.55;41.34;100935.13;6204680;22;20434;-74
2021/03/09 10:12:04;;;;;;;3.35;2.78;;;;;;;19.12;40.16;100942.28;6277924;22;19995;-74
2021/03/09 10:14:36;;;;;;;3.55;3.25;;;;;;;19.55;38.01;100927.97;6279486;22;20007;-73
2021/03/09 10:17:03;;;;;;;2.78;2.55;;;;;;;20.03;38.35;100930.16;6274483;22;20007;-74
2021/03/09 10:19:39;;;;;;;3.60;3.30;;;;;;;20.62;36.86;100931.88;6277379;22;20490;-73
2021/03/09 10:22:23;;;;;;;8.10;2.67;;;;;;;21.18;35.67;100934.13;6247177;22;20084;-73
2021/03/09 10:24:50;;;;;;;3.42;3.13;;;;;;;21.68;35.10;100943.97;6275918;22;20010;-74
2021/03/09 10:27:18;;;;;;;4.38;3.17;;;;;;;22.01;33.54;100927.56;6274490;22;20004;-73
2021/03/09 10:29:48;;;;;;;2.47;2.28;;;;;;;22.52;34.24;100932.50;6271145;22;20012;-72
2021/03/09 10:32:17;;;;;;;2.70;2.50;;;;;;;23.20;32.19;100923.25;6242707;22;20007;-72
2021/03/09 10:34:44;;;;;;;5.50;2.97;;;;;;;23.59;30.36;100923.91;6277635;22;20004;-72
2021/03/09 10:37:14;;;;;;;3.67;3.22;;;;;;;23.86;28.82;100909.38;6276482;22;20057;-72
2021/03/09 10:39:54;;;;;;;3.28;3.08;;;;;;;24.07;27.20;100899.28;6274435;22;20070;-75
2021/03/09 10:42:43;;;;;;;;;;;;;;;;;;;;;
2021/03/09 10:45:24;;;;;;;3.88;2.13;;;;;;;24.79;27.41;100896.88;6276686;22;20023;-72
2021/03/09 10:47:51;;;;;;;2.85;2.65;;;;;;;24.99;25.91;100892.28;6276197;22;20073;-72
2021/03/09 10:50:54;;;;;;;2.63;2.35;;;;;;;25.39;26.29;100885.09;6276272;22;20003;-75
2021/03/09 10:53:20;;;;;;;2.05;1.95;;;;;;;25.36;22.44;100891.41;6262707;22;20004;-74
2021/03/09 10:55:55;;;;;;;2.20;2.10;;;;;;;25.00;22.28;100896.72;6250037;22;20034;-73
2021/03/09 10:58:23;;;;;;;8.50;1.65;;;;;;;24.69;22.87;100897.34;6278161;22;20004;-75
2021/03/09 11:00:51;;;;;;;1.00;1.00;;;;;;;24.48;23.56;100875.91;6251733;22;20054;-74
2021/03/09 11:06:20;;;;;;;0.90;0.90;;;;;;;24.92;20.67;100861.31;6255690;22;20027;-74
2021/03/09 11:08:46;;;;;;;1.75;1.65;;;;;;;24.91;22.12;100871.69;6277371;22;19999;-73
2021/03/09 11:11:11;;;;;;;1.77;1.67;;;;;;;25.22;22.50;100875.00;6226241;22;20010;-74
2021/03/09 11:13:57;;;;;;;2.10;1.85;;;;;;;25.52;22.47;100861.47;6248950;22;20008;-75
2021/03/09 11:16:29;;;;;;;;;;;;;;;26.50;21.84;100873.19;6249865;22;20000;-73
2021/03/09 11:19:15;;;;;;;1.55;1.45;;;;;;;27.14;22.14;100876.66;6226665;22;19989;-72
2021/03/09 11:21:43;;;;;;;2.83;1.88;;;;;;;27.29;21.31;100877.78;6277150;22;20092;-71
2021/03/09 11:24:09;;;;;;;2.88;1.27;;;;;;;27.89;21.09;100887.78;6226681;22;20004;-73
2021/03/09 11:26:35;;;;;;;1.33;1.23;;;;;;;28.30;19.78;100899.38;6277594;22;20384;-73
2021/03/09 11:29:00;;;;;;;1.20;1.10;;;;;;;28.51;20.02;100889.66;6276652;22;20003;-73
2021/03/09 11:31:32;;;;;;;0.75;0.75;;;;;;;29.04;19.58;100886.84;6277260;22;20057;-74
2021/03/09 11:33:58;;;;;;;1.35;1.25;;;;;;;29.20;18.09;100888.63;6278244;22;20003;-72
2021/03/09 11:36:23;;;;;;;1.10;1.00;;;;;;;29.14;17.53;100887.34;6275261;22;20025;-72
2021/03/09 11:38:49;;;;;;;1.20;0.98;;;;;;;28.95;17.13;100893.94;6249851;22;20066;-72
2021/03/09 11:41:31;;;;;;;1.30;1.20;;;;;;;28.98;17.11;100896.00;6274707;22;19996;-74
2021/03/09 11:43:56;;;;;;;1.10;1.05;;;;;;;28.70;17.31;100881.13;6278662;22;20090;-73
2021/03/09 11:46:22;;;;;;;1.30;1.10;;;;;;;28.62;17.81;100885.03;6221139;22;20530;-72
2021/03/09 11:48:47;;;;;;;1.38;1.27;;;;;;;28.65;17.21;100884.28;6225933;22;20004;-72
2021/03/09 11:51:15;;;;;;;1.13;0.90;;;;;;;28.51;17.40;100884.03;6277081;22;20018;-72
2021/03/09 11:53:45;;;;;;;0.90;0.90;;;;;;;28.78;17.55;100876.44;6277936;22;20086;-72
2021/03/09 11:56:10;;;;;;;1.23;1.02;;;;;;;29.18;16.16;100876.94;6249247;22;20103;-74
2021/03/09 11:58:36;;;;;;;1.90;1.80;;;;;;;28.89;16.59;100887.81;6246868;22;20034;-71
2021/03/09 12:01:02;;;;;;;1.10;1.00;;;;;;;28.75;16.55;100877.16;6267993;22;20007;-73
2021/03/09 12:03:27;;;;;;;2.25;1.08;;;;;;;28.78;16.24;100892.47;6273620;22;20019;-70
2021/03/09 12:05:53;;;;;;;1.70;0.63;;;;;;;28.98;17.16;100885.53;6274303;22;20419;-71
2021/03/09 12:08:21;;;;;;;1.00;0.98;;;;;;;29.58;16.14;100881.06;6245798;22;20054;-74
2021/03/09 12:10:46;;;;;;;1.02;1.02;;;;;;;29.36;15.80;100883.63;6250254;22;20011;-72
2021/03/09 12:13:12;;;;;;;2.92;1.10;;;;;;;29.32;16.36;100882.78;6278288;22;20110;-71
2021/03/09 12:15:37;;;;;;;1.48;1.05;;;;;;;29.36;15.62;100883.63;6249093;22;20111;-73
2021/03/09 12:18:03;;;;;;;1.63;1.50;;;;;;;29.24;15.68;100881.06;6245148;22;20355;-71
2021/03/09 12:20:29;;;;;;;1.27;1.17;;;;;;;29.03;15.98;100882.41;6275882;22;20015;-71
2021/03/09 12:22:58;;;;;;;1.83;0.90;;;;;;;29.32;16.45;100876.34;6248010;22;20073;-72
2021/03/09 12:25:23;;;;;;;1.13;1.02;;;;;;;30.06;15.76;100864.25;6274441;22;20094;-70
2021/03/09 12:27:49;;;;;;;3.47;1.17;;;;;;;30.35;15.39;100872.94;6273110;22;20014;-71
2021/03/09 12:30:15;;;;;;;1.23;1.13;;;;;;;30.44;14.80;100870.63;6247960;22;20008;-72
2021/03/09 12:32:40;;;;;;;1.20;1.10;;;;;;;30.25;14.71;100868.03;6246484;22;20023;-72
2021/03/09 12:35:09;;;;;;;0.90;0.90;;;;;;;30.17;14.70;100857.88;6227472;22;20311;-70
2021/03/09 12:37:35;;;;;;;1.83;1.63;;;;;;;30.20;14.80;100863.56;6274665;22;20003;-70
2021/03/09 12:40:00;;;;;;;0.75;0.75;;;;;;;30.06;15.42;100850.16;6247869;22;20054;-72
2021/03/09 12:42:26;;;;;;;1.27;1.25;;;;;;;30.61;15.08;100854.22;6275193;22;20302;-70
2021/03/09 12:44:52;;;;;;;2.10;1.08;;;;;;;30.75;13.68;100850.66;6271180;22;20010;-71
2021/03/09 12:47:18;;;;;;;1.35;1.17;;;;;;;30.61;14.00;100849.38;6248524;22;20004;-70
2021/03/09 12:49:44;;;;;;;0.98;0.98;;;;;;;30.71;13.91;100836.53;6274438;22;20004;-71
2021/03/09 12:52:09;;;;;;;1.40;1.30;;;;;;;30.70;13.60;100834.91;6247178;22;20011;-71
2021/03/09 12:54:35;;;;;;;1.15;1.15;;;;;;;30.56;13.79;100830.00;6272601;22;20000;-70
2021/03/09 12:57:00;;;;;;;3.22;1.38;;;;;;;30.13;14.09;100834.50;6249287;22;20061;-71
2021/03/09 12:59:26;;;;;;;1.60;1.40;;;;;;;29.98;14.29;100827.91;6236504;22;20008;-71
2021/03/09 13:01:51;;;;;;;1.08;0.95;;;;;;;29.82;14.36;100830.97;6270709;22;20000;-70
2021/03/09 13:04:16;;;;;;;1.77;1.00;;;;;;;29.79;14.40;100818.50;6272630;22;20445;-71
2021/03/09 13:06:42;;;;;;;1.33;1.23;;;;;;;29.99;14.77;100813.44;6268878;22;20555;-71
2021/03/09 13:09:08;;;;;;;1.50;1.40;;;;;;;30.13;14.11;100811.94;6243888;22;20406;-70
2021/03/09 13:11:34;;;;;;;0.98;0.98;;;;;;;30.31;14.52;100812.06;6273180;22;19999;-70
2021/03/09 13:14:00;;;;;;;2.50;1.00;;;;;;;30.67;14.27;100807.47;6270745;22;20060;-70
2021/03/09 13:16:25;;;;;;;1.60;1.50;;;;;;;30.76;13.91;100805.09;6274642;22;20027;-70
2021/03/09 13:18:52;;;;;;;1.10;1.00;;;;;;;30.32;13.76;100803.22;6244739;22;20004;-71
2021/03/09 13:21:18;;;;;;;6.75;1.08;;;;;;;30.21;14.59;100799.50;6237682;23;20431;-72
2021/03/09 13:23:47;;;;;;;1.02;1.02;;;;;;;29.98;14.29;100789.28;6237642;23;20012;-72
2021/03/09 13:26:13;;;;;;;1.13;1.00;;;;;;;30.08;14.60;100777.28;6244894;23;20415;-71
2021/03/09 13:28:39;;;;;;;1.60;1.50;;;;;;;30.22;14.17;100781.38;6238694;22;20008;-71
2021/03/09 13:31:05;;;;;;;1.45;1.35;;;;;;;30.24;14.31;100778.97;6237908;23;20088;-72
2021/03/09 13:33:30;;;;;;;2.78;1.35;;;;;;;30.21;14.35;100774.94;6242019;22;20023;-73
2021/03/09 13:35:56;;;;;;;4.50;1.45;;;;;;;30.49;13.98;100778.34;6209927;23;20012;-73
2021/03/09 13:38:21;;;;;;;1.35;1.02;;;;;;;30.52;13.76;100772.75;6235745;23;20012;-69
2021/03/09 13:40:47;;;;;;;1.13;1.08;;;;;;;30.60;14.32;100770.75;6239486;23;20011;-70
2021/03/09 13:43:12;;;;;;;1.63;1.55;;;;;;;30.54;14.40;100766.69;6243894;23;20097;-69
2021/03/09 13:45:38;;;;;;;1.38;1.17;;;;;;;30.63;14.07;100772.78;6240354;23;20036;-70
2021/03/09 13:48:04;;;;;;;1.65;1.00;;;;;;;30.81;13.55;100762.38;6241457;23;20709;-69
2021/03/09 13:50:29;;;;;;;1.15;1.10;;;;;;;30.45;13.39;100767.84;6241077;23;20026;-70
2021/03/09 13:52:55;;;;;;;1.27;1.17;;;;;;;29.90;13.91;100771.47;6240727;23;20414;-69
2021/03/09 13:55:21;;;;;;;1.05;1.00;;;;;;;29.67;13.95;100768.88;6242215;23;20019;-70
2021/03/09 13:57:47;;;;;;;0.82;0.82;;;;;;;29.72;14.42;100767.69;6211778;23;20004;-69